sensor_id;sensor_type;location;lat;lon;timestamp;P1;durP1;ratioP1;P2;durP2;ratioP2
41693;SDS011;27377;50.666;9.150;2023-07-13T00:00:17;2.70;;;1.25;;
41693;SDS011;27377;50.666;9.150;2023-07-13T00:02:43;3.83;;;1.15;;
41693;SDS011;27377;50.666;9.150;2023-07-13T00:05:09;4.70;;;1.20;;
41693;SDS011;27377;50.666;9.150;2023-07-13T00:07:35;4.80;;;1.10;;
41693;SDS011;27377;50.666;9.150;2023-07-13T00:10:04;3.88;;;1.27;;
41693;SDS011;27377;50.666;9.150;2023-07-13T00:12:31;3.40;;;1.25;;
41693;SDS011;27377;50.666;9.150;2023-07-13T00:15:00;3.58;;;1.20;;
41693;SDS011;27377;50.666;9.150;2023-07-13T00:17:28;3.65;;;1.10;;
41693;SDS011;27377;50.666;9.150;2023-07-13T00:19:55;3.05;;;1.20;;
41693;SDS011;27377;50.666;9.150;2023-07-13T00:22:21;4.32;;;1.30;;
41693;SDS011;27377;50.666;9.150;2023-07-13T00:24:50;3.95;;;1.30;;
41693;SDS011;27377;50.666;9.150;2023-07-13T00:27:18;2.87;;;1.27;;
41693;SDS011;27377;50.666;9.150;2023-07-13T00:29:44;2.90;;;1.02;;
41693;SDS011;27377;50.666;9.150;2023-07-13T00:32:14;3.60;;;1.10;;
41693;SDS011;27377;50.666;9.150;2023-07-13T00:34:39;4.40;;;1.10;;
41693;SDS011;27377;50.666;9.150;2023-07-13T00:37:06;3.13;;;1.20;;
41693;SDS011;27377;50.666;9.150;2023-07-13T00:39:33;3.53;;;1.20;;
41693;SDS011;27377;50.666;9.150;2023-07-13T00:41:59;3.63;;;1.13;;
41693;SDS011;27377;50.666;9.150;2023-07-13T00:44:26;4.43;;;1.10;;
41693;SDS011;27377;50.666;9.150;2023-07-13T00:46:52;3.87;;;1.20;;
41693;SDS011;27377;50.666;9.150;2023-07-13T00:49:22;2.38;;;0.98;;
41693;SDS011;27377;50.666;9.150;2023-07-13T00:51:53;3.95;;;1.35;;
41693;SDS011;27377;50.666;9.150;2023-07-13T00:54:52;3.42;;;1.10;;
41693;SDS011;27377;50.666;9.150;2023-07-13T00:57:19;3.65;;;1.10;;
41693;SDS011;27377;50.666;9.150;2023-07-13T00:59:47;3.42;;;1.10;;
41693;SDS011;27377;50.666;9.150;2023-07-13T01:02:16;2.35;;;1.08;;
41693;SDS011;27377;50.666;9.150;2023-07-13T01:04:43;3.30;;;1.17;;
41693;SDS011;27377;50.666;9.150;2023-07-13T01:07:08;4.53;;;1.10;;
41693;SDS011;27377;50.666;9.150;2023-07-13T01:09:35;4.30;;;1.30;;
41693;SDS011;27377;50.666;9.150;2023-07-13T01:12:01;5.10;;;1.38;;
41693;SDS011;27377;50.666;9.150;2023-07-13T01:14:28;3.72;;;1.10;;
41693;SDS011;27377;50.666;9.150;2023-07-13T01:16:53;5.18;;;1.23;;
41693;SDS011;27377;50.666;9.150;2023-07-13T01:19:38;4.80;;;1.27;;
41693;SDS011;27377;50.666;9.150;2023-07-13T01:24:50;4.32;;;1.20;;
41693;SDS011;27377;50.666;9.150;2023-07-13T01:27:17;3.80;;;1.15;;
41693;SDS011;27377;50.666;9.150;2023-07-13T01:29:47;4.10;;;1.20;;
41693;SDS011;27377;50.666;9.150;2023-07-13T01:32:18;3.38;;;1.15;;
41693;SDS011;27377;50.666;9.150;2023-07-13T01:34:49;3.50;;;1.35;;
41693;SDS011;27377;50.666;9.150;2023-07-13T01:37:16;4.80;;;1.60;;
41693;SDS011;27377;50.666;9.150;2023-07-13T01:39:41;3.72;;;1.15;;
41693;SDS011;27377;50.666;9.150;2023-07-13T01:42:07;3.17;;;1.30;;
41693;SDS011;27377;50.666;9.150;2023-07-13T01:44:33;4.85;;;1.40;;
41693;SDS011;27377;50.666;9.150;2023-07-13T01:46:58;3.30;;;1.38;;
41693;SDS011;27377;50.666;9.150;2023-07-13T01:49:24;2.83;;;0.90;;
41693;SDS011;27377;50.666;9.150;2023-07-13T01:51:53;2.72;;;1.10;;
41693;SDS011;27377;50.666;9.150;2023-07-13T01:55:15;5.47;;;1.25;;
41693;SDS011;27377;50.666;9.150;2023-07-13T01:58:01;3.88;;;1.27;;
41693;SDS011;27377;50.666;9.150;2023-07-13T02:00:27;3.53;;;1.20;;
41693;SDS011;27377;50.666;9.150;2023-07-13T02:02:53;2.17;;;1.03;;
41693;SDS011;27377;50.666;9.150;2023-07-13T02:05:19;4.30;;;1.00;;
41693;SDS011;27377;50.666;9.150;2023-07-13T02:08:02;3.53;;;1.17;;
41693;SDS011;27377;50.666;9.150;2023-07-13T02:10:56;4.43;;;1.23;;
41693;SDS011;27377;50.666;9.150;2023-07-13T02:14:15;3.90;;;1.10;;
41693;SDS011;27377;50.666;9.150;2023-07-13T02:16:45;2.85;;;1.20;;
41693;SDS011;27377;50.666;9.150;2023-07-13T02:19:34;4.77;;;1.20;;
41693;SDS011;27377;50.666;9.150;2023-07-13T02:22:25;3.08;;;1.27;;
41693;SDS011;27377;50.666;9.150;2023-07-13T02:25:19;4.57;;;1.35;;
41693;SDS011;27377;50.666;9.150;2023-07-13T02:27:45;4.78;;;1.30;;
41693;SDS011;27377;50.666;9.150;2023-07-13T02:30:19;3.70;;;1.27;;
41693;SDS011;27377;50.666;9.150;2023-07-13T02:32:45;4.83;;;1.37;;
41693;SDS011;27377;50.666;9.150;2023-07-13T02:35:30;3.47;;;1.10;;
41693;SDS011;27377;50.666;9.150;2023-07-13T02:37:56;6.72;;;1.20;;
41693;SDS011;27377;50.666;9.150;2023-07-13T02:40:45;4.90;;;1.40;;
41693;SDS011;27377;50.666;9.150;2023-07-13T02:43:25;3.65;;;1.20;;
41693;SDS011;27377;50.666;9.150;2023-07-13T02:49:56;3.23;;;1.10;;
41693;SDS011;27377;50.666;9.150;2023-07-13T02:52:46;4.40;;;1.23;;
41693;SDS011;27377;50.666;9.150;2023-07-13T02:55:14;3.77;;;1.20;;
41693;SDS011;27377;50.666;9.150;2023-07-13T02:58:01;3.35;;;1.25;;
41693;SDS011;27377;50.666;9.150;2023-07-13T03:01:33;4.88;;;1.30;;
41693;SDS011;27377;50.666;9.150;2023-07-13T03:07:06;4.27;;;1.10;;
41693;SDS011;27377;50.666;9.150;2023-07-13T03:10:00;4.53;;;1.30;;
41693;SDS011;27377;50.666;9.150;2023-07-13T03:13:14;3.92;;;1.20;;
41693;SDS011;27377;50.666;9.150;2023-07-13T03:16:05;5.45;;;1.30;;
41693;SDS011;27377;50.666;9.150;2023-07-13T03:18:54;4.80;;;1.30;;
41693;SDS011;27377;50.666;9.150;2023-07-13T03:21:40;4.68;;;1.40;;
41693;SDS011;27377;50.666;9.150;2023-07-13T03:24:32;5.45;;;1.38;;
41693;SDS011;27377;50.666;9.150;2023-07-13T03:27:16;3.17;;;1.17;;
41693;SDS011;27377;50.666;9.150;2023-07-13T03:29:52;4.38;;;1.13;;
41693;SDS011;27377;50.666;9.150;2023-07-13T03:32:43;3.65;;;1.27;;
41693;SDS011;27377;50.666;9.150;2023-07-13T03:35:14;4.57;;;1.30;;
41693;SDS011;27377;50.666;9.150;2023-07-13T03:37:48;3.13;;;1.05;;
41693;SDS011;27377;50.666;9.150;2023-07-13T03:40:15;3.72;;;1.27;;
41693;SDS011;27377;50.666;9.150;2023-07-13T03:42:41;2.55;;;1.00;;
41693;SDS011;27377;50.666;9.150;2023-07-13T03:45:09;4.45;;;1.40;;
41693;SDS011;27377;50.666;9.150;2023-07-13T03:47:37;4.20;;;1.25;;
41693;SDS011;27377;50.666;9.150;2023-07-13T03:50:11;4.53;;;1.30;;
41693;SDS011;27377;50.666;9.150;2023-07-13T03:52:45;5.20;;;1.20;;
41693;SDS011;27377;50.666;9.150;2023-07-13T03:55:20;3.63;;;1.30;;
41693;SDS011;27377;50.666;9.150;2023-07-13T03:58:34;4.95;;;1.27;;
41693;SDS011;27377;50.666;9.150;2023-07-13T04:01:08;3.40;;;1.20;;
41693;SDS011;27377;50.666;9.150;2023-07-13T04:03:45;4.40;;;1.30;;
41693;SDS011;27377;50.666;9.150;2023-07-13T04:06:22;3.72;;;1.25;;
41693;SDS011;27377;50.666;9.150;2023-07-13T04:09:02;4.15;;;1.40;;
41693;SDS011;27377;50.666;9.150;2023-07-13T04:11:42;2.53;;;1.20;;
41693;SDS011;27377;50.666;9.150;2023-07-13T04:14:32;3.30;;;1.17;;
41693;SDS011;27377;50.666;9.150;2023-07-13T04:17:08;3.30;;;1.23;;
41693;SDS011;27377;50.666;9.150;2023-07-13T04:20:11;3.63;;;1.30;;
41693;SDS011;27377;50.666;9.150;2023-07-13T04:22:51;5.05;;;1.20;;
41693;SDS011;27377;50.666;9.150;2023-07-13T04:25:47;4.10;;;1.30;;
41693;SDS011;27377;50.666;9.150;2023-07-13T04:28:39;3.93;;;1.17;;
41693;SDS011;27377;50.666;9.150;2023-07-13T04:31:08;4.13;;;1.10;;
41693;SDS011;27377;50.666;9.150;2023-07-13T04:33:37;3.55;;;1.10;;
41693;SDS011;27377;50.666;9.150;2023-07-13T04:36:02;2.60;;;1.00;;
41693;SDS011;27377;50.666;9.150;2023-07-13T04:38:31;4.57;;;1.23;;
41693;SDS011;27377;50.666;9.150;2023-07-13T04:41:04;4.85;;;1.30;;
41693;SDS011;27377;50.666;9.150;2023-07-13T04:43:37;3.38;;;1.20;;
41693;SDS011;27377;50.666;9.150;2023-07-13T04:46:06;5.20;;;1.40;;
41693;SDS011;27377;50.666;9.150;2023-07-13T04:48:33;3.88;;;1.30;;
41693;SDS011;27377;50.666;9.150;2023-07-13T04:50:59;4.20;;;1.30;;
41693;SDS011;27377;50.666;9.150;2023-07-13T04:53:25;3.17;;;1.03;;
41693;SDS011;27377;50.666;9.150;2023-07-13T04:55:51;4.68;;;1.10;;
41693;SDS011;27377;50.666;9.150;2023-07-13T04:58:17;5.27;;;1.17;;
41693;SDS011;27377;50.666;9.150;2023-07-13T05:00:43;5.03;;;1.42;;
41693;SDS011;27377;50.666;9.150;2023-07-13T05:03:09;4.72;;;1.10;;
41693;SDS011;27377;50.666;9.150;2023-07-13T05:05:37;3.93;;;1.20;;
41693;SDS011;27377;50.666;9.150;2023-07-13T05:08:03;4.13;;;1.30;;
41693;SDS011;27377;50.666;9.150;2023-07-13T05:10:35;4.93;;;1.20;;
41693;SDS011;27377;50.666;9.150;2023-07-13T05:13:13;4.28;;;1.25;;
41693;SDS011;27377;50.666;9.150;2023-07-13T05:15:41;5.57;;;1.40;;
41693;SDS011;27377;50.666;9.150;2023-07-13T05:18:07;4.35;;;1.30;;
41693;SDS011;27377;50.666;9.150;2023-07-13T05:21:37;5.15;;;2.10;;
41693;SDS011;27377;50.666;9.150;2023-07-13T05:24:50;4.53;;;1.20;;
41693;SDS011;27377;50.666;9.150;2023-07-13T05:33:06;5.73;;;1.37;;
41693;SDS011;27377;50.666;9.150;2023-07-13T05:35:32;3.85;;;1.30;;
41693;SDS011;27377;50.666;9.150;2023-07-13T05:41:46;5.20;;;1.40;;
41693;SDS011;27377;50.666;9.150;2023-07-13T05:44:11;5.03;;;1.30;;
41693;SDS011;27377;50.666;9.150;2023-07-13T05:46:37;6.17;;;1.50;;
41693;SDS011;27377;50.666;9.150;2023-07-13T05:49:02;4.17;;;1.13;;
41693;SDS011;27377;50.666;9.150;2023-07-13T05:51:28;6.47;;;1.27;;
41693;SDS011;27377;50.666;9.150;2023-07-13T05:53:54;5.10;;;1.38;;
41693;SDS011;27377;50.666;9.150;2023-07-13T05:56:19;5.88;;;1.10;;
41693;SDS011;27377;50.666;9.150;2023-07-13T05:58:47;6.93;;;1.20;;
41693;SDS011;27377;50.666;9.150;2023-07-13T06:01:14;5.43;;;1.20;;
41693;SDS011;27377;50.666;9.150;2023-07-13T06:03:41;6.45;;;1.35;;
41693;SDS011;27377;50.666;9.150;2023-07-13T06:06:08;5.35;;;1.17;;
41693;SDS011;27377;50.666;9.150;2023-07-13T06:08:35;4.82;;;1.30;;
41693;SDS011;27377;50.666;9.150;2023-07-13T06:11:01;4.50;;;1.20;;
41693;SDS011;27377;50.666;9.150;2023-07-13T06:13:32;5.15;;;1.17;;
41693;SDS011;27377;50.666;9.150;2023-07-13T06:15:58;5.60;;;1.40;;
41693;SDS011;27377;50.666;9.150;2023-07-13T06:18:24;5.45;;;1.10;;
41693;SDS011;27377;50.666;9.150;2023-07-13T06:20:50;7.10;;;1.20;;
41693;SDS011;27377;50.666;9.150;2023-07-13T06:23:16;5.60;;;1.20;;
41693;SDS011;27377;50.666;9.150;2023-07-13T06:25:43;4.65;;;1.30;;
41693;SDS011;27377;50.666;9.150;2023-07-13T06:28:08;6.10;;;1.58;;
41693;SDS011;27377;50.666;9.150;2023-07-13T06:30:34;3.67;;;1.30;;
41693;SDS011;27377;50.666;9.150;2023-07-13T06:32:59;5.72;;;1.35;;
41693;SDS011;27377;50.666;9.150;2023-07-13T06:35:28;4.73;;;1.30;;
41693;SDS011;27377;50.666;9.150;2023-07-13T06:37:56;4.17;;;1.30;;
41693;SDS011;27377;50.666;9.150;2023-07-13T06:40:22;4.35;;;1.20;;
41693;SDS011;27377;50.666;9.150;2023-07-13T06:42:48;5.40;;;1.20;;
41693;SDS011;27377;50.666;9.150;2023-07-13T06:45:13;4.20;;;1.20;;
41693;SDS011;27377;50.666;9.150;2023-07-13T06:47:42;4.37;;;1.00;;
41693;SDS011;27377;50.666;9.150;2023-07-13T06:50:07;5.35;;;1.25;;
41693;SDS011;27377;50.666;9.150;2023-07-13T06:52:33;4.83;;;1.33;;
41693;SDS011;27377;50.666;9.150;2023-07-13T06:54:59;5.90;;;1.30;;
41693;SDS011;27377;50.666;9.150;2023-07-13T06:57:25;4.10;;;1.27;;
41693;SDS011;27377;50.666;9.150;2023-07-13T06:59:51;5.22;;;1.63;;
41693;SDS011;27377;50.666;9.150;2023-07-13T07:02:17;6.00;;;1.50;;
41693;SDS011;27377;50.666;9.150;2023-07-13T07:04:42;5.78;;;1.30;;
41693;SDS011;27377;50.666;9.150;2023-07-13T07:07:08;6.72;;;1.20;;
41693;SDS011;27377;50.666;9.150;2023-07-13T07:09:33;4.20;;;1.10;;
41693;SDS011;27377;50.666;9.150;2023-07-13T07:11:59;4.37;;;0.90;;
41693;SDS011;27377;50.666;9.150;2023-07-13T07:14:24;6.03;;;1.10;;
41693;SDS011;27377;50.666;9.150;2023-07-13T07:16:50;5.30;;;1.23;;
41693;SDS011;27377;50.666;9.150;2023-07-13T07:19:16;3.63;;;1.03;;
41693;SDS011;27377;50.666;9.150;2023-07-13T07:21:41;5.03;;;1.30;;
41693;SDS011;27377;50.666;9.150;2023-07-13T07:24:10;5.13;;;1.23;;
41693;SDS011;27377;50.666;9.150;2023-07-13T07:26:35;3.97;;;0.80;;
41693;SDS011;27377;50.666;9.150;2023-07-13T07:29:01;3.30;;;0.90;;
41693;SDS011;27377;50.666;9.150;2023-07-13T07:31:26;5.07;;;0.90;;
41693;SDS011;27377;50.666;9.150;2023-07-13T07:33:52;3.80;;;1.00;;
41693;SDS011;27377;50.666;9.150;2023-07-13T07:36:18;3.90;;;1.17;;
41693;SDS011;27377;50.666;9.150;2023-07-13T07:38:43;3.87;;;1.20;;
41693;SDS011;27377;50.666;9.150;2023-07-13T07:41:09;5.13;;;1.00;;
41693;SDS011;27377;50.666;9.150;2023-07-13T07:43:35;4.15;;;1.13;;
41693;SDS011;27377;50.666;9.150;2023-07-13T07:46:02;5.73;;;1.00;;
41693;SDS011;27377;50.666;9.150;2023-07-13T07:48:28;3.80;;;1.10;;
41693;SDS011;27377;50.666;9.150;2023-07-13T07:50:53;3.90;;;1.10;;
41693;SDS011;27377;50.666;9.150;2023-07-13T07:53:19;4.37;;;1.10;;
41693;SDS011;27377;50.666;9.150;2023-07-13T07:55:45;3.17;;;1.20;;
41693;SDS011;27377;50.666;9.150;2023-07-13T07:58:10;7.27;;;1.40;;
41693;SDS011;27377;50.666;9.150;2023-07-13T08:00:36;3.13;;;0.90;;
41693;SDS011;27377;50.666;9.150;2023-07-13T08:03:01;3.65;;;0.85;;
41693;SDS011;27377;50.666;9.150;2023-07-13T08:05:27;4.53;;;1.10;;
41693;SDS011;27377;50.666;9.150;2023-07-13T08:07:53;3.83;;;1.10;;
41693;SDS011;27377;50.666;9.150;2023-07-13T08:10:19;3.87;;;0.80;;
41693;SDS011;27377;50.666;9.150;2023-07-13T08:12:45;2.77;;;1.00;;
41693;SDS011;27377;50.666;9.150;2023-07-13T08:15:12;2.73;;;0.90;;
41693;SDS011;27377;50.666;9.150;2023-07-13T08:17:40;2.58;;;1.02;;
41693;SDS011;27377;50.666;9.150;2023-07-13T08:20:06;2.27;;;0.80;;
41693;SDS011;27377;50.666;9.150;2023-07-13T08:22:33;2.58;;;0.80;;
41693;SDS011;27377;50.666;9.150;2023-07-13T08:24:59;2.75;;;1.00;;
41693;SDS011;27377;50.666;9.150;2023-07-13T08:27:25;4.07;;;1.08;;
41693;SDS011;27377;50.666;9.150;2023-07-13T08:29:52;2.92;;;0.88;;
41693;SDS011;27377;50.666;9.150;2023-07-13T08:32:19;3.67;;;0.82;;
41693;SDS011;27377;50.666;9.150;2023-07-13T08:34:46;2.10;;;0.70;;
41693;SDS011;27377;50.666;9.150;2023-07-13T08:37:12;3.85;;;0.90;;
41693;SDS011;27377;50.666;9.150;2023-07-13T08:39:38;2.87;;;0.70;;
41693;SDS011;27377;50.666;9.150;2023-07-13T08:42:11;3.40;;;0.90;;
41693;SDS011;27377;50.666;9.150;2023-07-13T08:50:27;5.05;;;0.80;;
41693;SDS011;27377;50.666;9.150;2023-07-13T08:53:00;3.45;;;0.80;;
41693;SDS011;27377;50.666;9.150;2023-07-13T08:55:30;3.03;;;0.80;;
41693;SDS011;27377;50.666;9.150;2023-07-13T08:58:03;4.10;;;0.90;;
41693;SDS011;27377;50.666;9.150;2023-07-13T09:01:19;4.22;;;0.75;;
41693;SDS011;27377;50.666;9.150;2023-07-13T09:06:27;3.53;;;0.90;;
41693;SDS011;27377;50.666;9.150;2023-07-13T09:09:06;4.30;;;0.80;;
41693;SDS011;27377;50.666;9.150;2023-07-13T09:11:46;2.03;;;0.90;;
41693;SDS011;27377;50.666;9.150;2023-07-13T09:14:26;2.80;;;0.80;;
41693;SDS011;27377;50.666;9.150;2023-07-13T09:18:08;2.05;;;0.70;;
41693;SDS011;27377;50.666;9.150;2023-07-13T09:22:47;1.85;;;0.65;;
41693;SDS011;27377;50.666;9.150;2023-07-13T09:27:53;3.17;;;0.90;;
41693;SDS011;27377;50.666;9.150;2023-07-13T09:30:27;3.85;;;0.80;;
41693;SDS011;27377;50.666;9.150;2023-07-13T09:32:58;2.15;;;0.80;;
41693;SDS011;27377;50.666;9.150;2023-07-13T09:35:28;3.97;;;0.80;;
41693;SDS011;27377;50.666;9.150;2023-07-13T09:37:57;3.45;;;0.90;;
41693;SDS011;27377;50.666;9.150;2023-07-13T09:40:28;2.15;;;0.73;;
41693;SDS011;27377;50.666;9.150;2023-07-13T09:43:08;3.22;;;0.80;;
41693;SDS011;27377;50.666;9.150;2023-07-13T09:45:38;2.53;;;0.80;;
41693;SDS011;27377;50.666;9.150;2023-07-13T09:48:06;3.22;;;0.70;;
41693;SDS011;27377;50.666;9.150;2023-07-13T09:50:36;3.17;;;0.80;;
41693;SDS011;27377;50.666;9.150;2023-07-13T09:53:02;2.22;;;0.70;;
41693;SDS011;27377;50.666;9.150;2023-07-13T09:55:40;3.07;;;0.80;;
41693;SDS011;27377;50.666;9.150;2023-07-13T09:58:11;4.18;;;0.80;;
41693;SDS011;27377;50.666;9.150;2023-07-13T10:00:43;4.13;;;0.80;;
41693;SDS011;27377;50.666;9.150;2023-07-13T10:03:24;3.35;;;0.93;;
41693;SDS011;27377;50.666;9.150;2023-07-13T10:05:53;2.55;;;0.80;;
41693;SDS011;27377;50.666;9.150;2023-07-13T10:08:29;3.35;;;0.65;;
41693;SDS011;27377;50.666;9.150;2023-07-13T10:11:02;2.28;;;0.65;;
41693;SDS011;27377;50.666;9.150;2023-07-13T10:13:35;1.77;;;0.60;;
41693;SDS011;27377;50.666;9.150;2023-07-13T10:16:06;2.88;;;0.73;;
41693;SDS011;27377;50.666;9.150;2023-07-13T10:18:36;1.90;;;0.73;;
41693;SDS011;27377;50.666;9.150;2023-07-13T10:21:18;2.45;;;0.70;;
41693;SDS011;27377;50.666;9.150;2023-07-13T10:23:54;6.32;;;0.90;;
41693;SDS011;27377;50.666;9.150;2023-07-13T10:26:29;2.65;;;0.88;;
41693;SDS011;27377;50.666;9.150;2023-07-13T10:28:57;3.85;;;0.65;;
41693;SDS011;27377;50.666;9.150;2023-07-13T10:31:30;2.20;;;0.80;;
41693;SDS011;27377;50.666;9.150;2023-07-13T10:33:56;4.00;;;0.60;;
41693;SDS011;27377;50.666;9.150;2023-07-13T10:39:06;3.20;;;0.70;;
41693;SDS011;27377;50.666;9.150;2023-07-13T10:41:34;3.38;;;0.73;;
41693;SDS011;27377;50.666;9.150;2023-07-13T10:44:04;2.45;;;0.80;;
41693;SDS011;27377;50.666;9.150;2023-07-13T10:46:31;1.77;;;0.63;;
41693;SDS011;27377;50.666;9.150;2023-07-13T10:49:01;2.67;;;0.60;;
41693;SDS011;27377;50.666;9.150;2023-07-13T10:51:30;1.90;;;0.60;;
41693;SDS011;27377;50.666;9.150;2023-07-13T10:54:14;3.75;;;0.60;;
41693;SDS011;27377;50.666;9.150;2023-07-13T10:56:47;4.70;;;0.90;;
41693;SDS011;27377;50.666;9.150;2023-07-13T10:59:18;3.40;;;0.70;;
41693;SDS011;27377;50.666;9.150;2023-07-13T11:01:55;2.55;;;0.60;;
41693;SDS011;27377;50.666;9.150;2023-07-13T11:04:42;2.67;;;0.70;;
41693;SDS011;27377;50.666;9.150;2023-07-13T11:07:17;2.65;;;0.68;;
41693;SDS011;27377;50.666;9.150;2023-07-13T11:09:53;3.08;;;0.68;;
41693;SDS011;27377;50.666;9.150;2023-07-13T11:22:53;2.10;;;0.63;;
41693;SDS011;27377;50.666;9.150;2023-07-13T11:25:34;2.00;;;0.70;;
41693;SDS011;27377;50.666;9.150;2023-07-13T11:33:25;3.35;;;0.80;;
41693;SDS011;27377;50.666;9.150;2023-07-13T11:38:39;2.83;;;0.80;;
41693;SDS011;27377;50.666;9.150;2023-07-13T11:41:23;1.95;;;0.80;;
41693;SDS011;27377;50.666;9.150;2023-07-13T11:44:01;3.10;;;0.80;;
41693;SDS011;27377;50.666;9.150;2023-07-13T11:46:31;2.63;;;0.70;;
41693;SDS011;27377;50.666;9.150;2023-07-13T11:48:57;2.20;;;0.80;;
41693;SDS011;27377;50.666;9.150;2023-07-13T11:51:26;2.30;;;0.80;;
41693;SDS011;27377;50.666;9.150;2023-07-13T11:53:55;2.80;;;0.80;;
41693;SDS011;27377;50.666;9.150;2023-07-13T11:56:22;3.70;;;0.73;;
41693;SDS011;27377;50.666;9.150;2023-07-13T11:58:51;4.53;;;0.90;;
41693;SDS011;27377;50.666;9.150;2023-07-13T12:01:22;3.95;;;0.75;;
41693;SDS011;27377;50.666;9.150;2023-07-13T12:03:50;2.63;;;0.82;;
41693;SDS011;27377;50.666;9.150;2023-07-13T12:06:33;3.67;;;0.80;;
41693;SDS011;27377;50.666;9.150;2023-07-13T12:09:13;3.95;;;0.80;;
41693;SDS011;27377;50.666;9.150;2023-07-13T12:11:43;4.10;;;0.63;;
41693;SDS011;27377;50.666;9.150;2023-07-13T12:14:15;4.00;;;0.80;;
41693;SDS011;27377;50.666;9.150;2023-07-13T12:16:42;3.17;;;0.80;;
41693;SDS011;27377;50.666;9.150;2023-07-13T12:19:14;2.33;;;0.70;;
41693;SDS011;27377;50.666;9.150;2023-07-13T12:21:46;4.55;;;0.80;;
41693;SDS011;27377;50.666;9.150;2023-07-13T12:24:16;1.70;;;0.65;;
41693;SDS011;27377;50.666;9.150;2023-07-13T12:26:43;2.10;;;0.70;;
41693;SDS011;27377;50.666;9.150;2023-07-13T12:29:16;1.77;;;0.60;;
41693;SDS011;27377;50.666;9.150;2023-07-13T12:31:44;2.90;;;0.80;;
41693;SDS011;27377;50.666;9.150;2023-07-13T12:34:15;2.78;;;0.80;;
41693;SDS011;27377;50.666;9.150;2023-07-13T12:36:52;5.80;;;0.90;;
41693;SDS011;27377;50.666;9.150;2023-07-13T12:39:21;2.38;;;0.80;;
41693;SDS011;27377;50.666;9.150;2023-07-13T12:41:50;2.78;;;0.80;;
41693;SDS011;27377;50.666;9.150;2023-07-13T12:44:18;3.70;;;1.00;;
41693;SDS011;27377;50.666;9.150;2023-07-13T12:46:57;2.50;;;0.77;;
41693;SDS011;27377;50.666;9.150;2023-07-13T12:49:28;3.88;;;0.95;;
41693;SDS011;27377;50.666;9.150;2023-07-13T12:51:59;3.20;;;0.90;;
41693;SDS011;27377;50.666;9.150;2023-07-13T12:54:26;2.72;;;1.00;;
41693;SDS011;27377;50.666;9.150;2023-07-13T12:56:53;2.75;;;0.75;;
41693;SDS011;27377;50.666;9.150;2023-07-13T12:59:20;3.33;;;0.83;;
41693;SDS011;27377;50.666;9.150;2023-07-13T13:01:47;3.63;;;0.73;;
41693;SDS011;27377;50.666;9.150;2023-07-13T13:04:18;2.78;;;0.95;;
41693;SDS011;27377;50.666;9.150;2023-07-13T13:06:46;2.92;;;1.02;;
41693;SDS011;27377;50.666;9.150;2023-07-13T13:09:14;3.97;;;1.20;;
41693;SDS011;27377;50.666;9.150;2023-07-13T13:11:43;2.50;;;0.80;;
41693;SDS011;27377;50.666;9.150;2023-07-13T13:14:09;3.03;;;0.80;;
41693;SDS011;27377;50.666;9.150;2023-07-13T13:16:37;1.93;;;0.67;;
41693;SDS011;27377;50.666;9.150;2023-07-13T13:19:17;3.08;;;0.77;;
41693;SDS011;27377;50.666;9.150;2023-07-13T13:21:47;2.60;;;0.80;;
41693;SDS011;27377;50.666;9.150;2023-07-13T13:24:19;3.00;;;0.82;;
41693;SDS011;27377;50.666;9.150;2023-07-13T13:26:46;3.03;;;0.90;;
41693;SDS011;27377;50.666;9.150;2023-07-13T13:29:15;3.50;;;0.93;;
41693;SDS011;27377;50.666;9.150;2023-07-13T13:31:45;2.45;;;1.00;;
41693;SDS011;27377;50.666;9.150;2023-07-13T13:34:12;3.33;;;1.13;;
41693;SDS011;27377;50.666;9.150;2023-07-13T13:36:39;2.75;;;0.95;;
41693;SDS011;27377;50.666;9.150;2023-07-13T13:39:15;5.00;;;0.90;;
41693;SDS011;27377;50.666;9.150;2023-07-13T13:41:41;2.93;;;1.10;;
41693;SDS011;27377;50.666;9.150;2023-07-13T13:44:09;3.33;;;1.20;;
41693;SDS011;27377;50.666;9.150;2023-07-13T13:46:35;3.30;;;1.10;;
41693;SDS011;27377;50.666;9.150;2023-07-13T13:49:01;2.95;;;0.80;;
41693;SDS011;27377;50.666;9.150;2023-07-13T13:51:27;2.72;;;0.80;;
41693;SDS011;27377;50.666;9.150;2023-07-13T13:53:54;5.37;;;1.20;;
41693;SDS011;27377;50.666;9.150;2023-07-13T13:56:20;3.60;;;0.97;;
41693;SDS011;27377;50.666;9.150;2023-07-13T13:58:46;3.75;;;0.90;;
41693;SDS011;27377;50.666;9.150;2023-07-13T14:01:19;2.50;;;0.90;;
41693;SDS011;27377;50.666;9.150;2023-07-13T14:03:47;4.05;;;1.00;;
41693;SDS011;27377;50.666;9.150;2023-07-13T14:06:14;4.10;;;0.80;;
41693;SDS011;27377;50.666;9.150;2023-07-13T14:08:41;1.73;;;0.70;;
41693;SDS011;27377;50.666;9.150;2023-07-13T14:11:10;3.40;;;0.90;;
41693;SDS011;27377;50.666;9.150;2023-07-13T14:13:41;3.30;;;0.83;;
41693;SDS011;27377;50.666;9.150;2023-07-13T14:16:11;4.00;;;1.15;;
41693;SDS011;27377;50.666;9.150;2023-07-13T14:18:38;2.38;;;0.95;;
41693;SDS011;27377;50.666;9.150;2023-07-13T14:21:08;3.28;;;0.90;;
41693;SDS011;27377;50.666;9.150;2023-07-13T14:23:38;2.85;;;0.90;;
41693;SDS011;27377;50.666;9.150;2023-07-13T14:26:07;2.83;;;0.77;;
41693;SDS011;27377;50.666;9.150;2023-07-13T14:28:36;2.67;;;0.70;;
41693;SDS011;27377;50.666;9.150;2023-07-13T14:31:06;2.35;;;0.80;;
41693;SDS011;27377;50.666;9.150;2023-07-13T14:33:32;2.30;;;0.82;;
41693;SDS011;27377;50.666;9.150;2023-07-13T14:35:58;3.15;;;0.90;;
41693;SDS011;27377;50.666;9.150;2023-07-13T14:38:23;2.42;;;0.90;;
41693;SDS011;27377;50.666;9.150;2023-07-13T14:40:49;5.03;;;1.27;;
41693;SDS011;27377;50.666;9.150;2023-07-13T14:43:15;3.00;;;0.90;;
41693;SDS011;27377;50.666;9.150;2023-07-13T14:45:48;2.72;;;0.95;;
41693;SDS011;27377;50.666;9.150;2023-07-13T14:48:22;5.17;;;1.00;;
41693;SDS011;27377;50.666;9.150;2023-07-13T14:50:53;3.20;;;1.20;;
41693;SDS011;27377;50.666;9.150;2023-07-13T14:53:21;4.53;;;1.10;;
41693;SDS011;27377;50.666;9.150;2023-07-13T14:55:48;5.20;;;1.17;;
41693;SDS011;27377;50.666;9.150;2023-07-13T14:58:13;5.20;;;1.10;;
41693;SDS011;27377;50.666;9.150;2023-07-13T15:00:39;4.07;;;0.90;;
41693;SDS011;27377;50.666;9.150;2023-07-13T15:03:05;2.83;;;1.05;;
41693;SDS011;27377;50.666;9.150;2023-07-13T15:05:47;3.80;;;1.20;;
41693;SDS011;27377;50.666;9.150;2023-07-13T15:08:13;3.50;;;1.10;;
41693;SDS011;27377;50.666;9.150;2023-07-13T15:10:40;2.80;;;1.00;;
41693;SDS011;27377;50.666;9.150;2023-07-13T15:13:14;3.13;;;1.00;;
41693;SDS011;27377;50.666;9.150;2023-07-13T15:15:42;3.00;;;1.00;;
41693;SDS011;27377;50.666;9.150;2023-07-13T15:18:11;5.40;;;1.05;;
41693;SDS011;27377;50.666;9.150;2023-07-13T15:20:37;3.47;;;1.00;;
41693;SDS011;27377;50.666;9.150;2023-07-13T15:23:04;2.40;;;0.90;;
41693;SDS011;27377;50.666;9.150;2023-07-13T15:25:31;2.58;;;1.10;;
41693;SDS011;27377;50.666;9.150;2023-07-13T15:27:58;3.08;;;1.00;;
41693;SDS011;27377;50.666;9.150;2023-07-13T15:30:25;3.90;;;1.13;;
41693;SDS011;27377;50.666;9.150;2023-07-13T15:32:54;3.45;;;1.20;;
41693;SDS011;27377;50.666;9.150;2023-07-13T15:35:24;3.05;;;1.08;;
41693;SDS011;27377;50.666;9.150;2023-07-13T15:37:50;3.72;;;1.23;;
41693;SDS011;27377;50.666;9.150;2023-07-13T15:40:16;3.00;;;1.10;;
41693;SDS011;27377;50.666;9.150;2023-07-13T15:42:43;2.93;;;0.97;;
41693;SDS011;27377;50.666;9.150;2023-07-13T15:47:42;4.13;;;1.30;;
41693;SDS011;27377;50.666;9.150;2023-07-13T15:50:13;3.60;;;1.17;;
41693;SDS011;27377;50.666;9.150;2023-07-13T15:52:48;3.30;;;1.00;;
41693;SDS011;27377;50.666;9.150;2023-07-13T15:55:16;4.00;;;1.10;;
41693;SDS011;27377;50.666;9.150;2023-07-13T15:57:44;3.90;;;0.93;;
41693;SDS011;27377;50.666;9.150;2023-07-13T16:00:19;2.63;;;1.00;;
41693;SDS011;27377;50.666;9.150;2023-07-13T16:02:47;2.50;;;0.93;;
41693;SDS011;27377;50.666;9.150;2023-07-13T16:05:14;2.78;;;0.93;;
41693;SDS011;27377;50.666;9.150;2023-07-13T16:07:41;3.10;;;0.90;;
41693;SDS011;27377;50.666;9.150;2023-07-13T16:10:09;3.33;;;1.00;;